createdAt,value
2023-03-12T00:00:34.219Z,76.02
2023-03-12T00:01:35.123Z,76.02
2023-03-12T00:02:34.208Z,76.02
2023-03-12T00:03:34.265Z,76.02
2023-03-12T00:04:34.184Z,75.92
2023-03-12T00:05:34.139Z,76.02
2023-03-12T00:06:35.071Z,75.81
2023-03-12T00:07:34.126Z,76.02
2023-03-12T00:08:34.140Z,75.92
2023-03-12T00:09:34.140Z,75.81
2023-03-12T00:10:34.102Z,76.02
2023-03-12T00:11:34.113Z,75.60
2023-03-12T00:12:35.011Z,75.60
2023-03-12T00:13:34.089Z,75.71
2023-03-12T00:14:34.080Z,75.71
2023-03-12T00:15:34.059Z,75.50
2023-03-12T00:16:34.000Z,75.50
2023-03-12T00:17:34.006Z,75.50
2023-03-12T00:18:34.978Z,75.29
2023-03-12T00:19:34.036Z,75.29
2023-03-12T00:20:33.967Z,75.50
2023-03-12T00:21:34.005Z,75.50
2023-03-12T00:22:33.979Z,75.60
2023-03-12T00:23:34.858Z,75.71
2023-03-12T00:24:34.010Z,75.50
2023-03-12T00:25:33.926Z,75.29
2023-03-12T00:26:33.891Z,75.39
2023-03-12T00:27:33.871Z,75.39
2023-03-12T00:28:33.858Z,75.60
2023-03-12T00:29:34.887Z,75.39
2023-03-12T00:30:33.898Z,75.29
2023-03-12T00:31:33.892Z,75.39
2023-03-12T00:32:33.875Z,75.08
2023-03-12T00:33:33.885Z,75.18
2023-03-12T00:34:33.810Z,75.29
2023-03-12T00:35:34.786Z,75.29
2023-03-12T00:36:33.806Z,75.18
2023-03-12T00:37:33.783Z,74.98
2023-03-12T00:38:33.722Z,74.98
2023-03-12T00:39:33.760Z,74.87
2023-03-12T00:40:34.670Z,74.98
2023-03-12T00:41:33.703Z,74.87
2023-03-12T00:42:33.668Z,74.87
2023-03-12T00:43:33.667Z,75.08
2023-03-12T00:44:33.767Z,74.98
2023-03-12T00:45:34.806Z,74.87
2023-03-12T00:46:33.690Z,74.77
2023-03-12T00:47:33.619Z,74.87
2023-03-12T00:48:33.639Z,74.66
2023-03-12T00:49:33.583Z,74.66
2023-03-12T00:50:34.513Z,74.87
2023-03-12T00:51:33.576Z,74.66
2023-03-12T00:52:33.567Z,74.77
2023-03-12T00:53:33.595Z,74.87
2023-03-12T00:54:33.549Z,74.77
2023-03-12T00:55:33.505Z,74.77
2023-03-12T00:56:34.485Z,74.66
2023-03-12T00:57:33.501Z,74.77
2023-03-12T00:58:33.498Z,74.66
2023-03-12T00:59:33.477Z,74.77
2023-03-12T01:00:33.507Z,74.66
2023-03-12T01:01:34.388Z,74.77
2023-03-12T01:02:33.444Z,74.56
2023-03-12T01:03:33.411Z,74.56
2023-03-12T01:04:33.426Z,74.56
2023-03-12T01:05:35.133Z,74.45
2023-03-12T01:06:34.291Z,74.42
2023-03-12T01:07:33.382Z,74.42
2023-03-12T01:08:33.380Z,74.21
2023-03-12T01:09:33.345Z,74.21
2023-03-12T01:10:33.327Z,74.21
2023-03-12T01:11:34.242Z,74.32
2023-03-12T01:12:33.326Z,74.21
2023-03-12T01:13:33.312Z,74.11
2023-03-12T01:14:33.338Z,73.90
2023-03-12T01:15:33.289Z,74.11
2023-03-12T01:16:33.296Z,74.01
2023-03-12T01:17:34.184Z,74.11
2023-03-12T01:18:33.235Z,74.01
2023-03-12T01:19:33.248Z,74.01
2023-03-12T01:20:33.197Z,74.01
2023-03-12T01:21:33.197Z,74.11
2023-03-12T01:22:33.556Z,74.11
2023-03-12T01:23:34.080Z,74.11
2023-03-12T01:24:33.181Z,74.21
2023-03-12T01:25:33.165Z,73.90
2023-03-12T01:26:33.139Z,73.90
2023-03-12T01:27:33.142Z,74.01
2023-03-12T01:28:34.037Z,74.11
2023-03-12T01:29:33.103Z,74.11
2023-03-12T01:30:33.065Z,74.32
2023-03-12T01:31:33.147Z,74.42
2023-03-12T01:32:33.124Z,74.63
2023-03-12T01:33:33.033Z,74.63
2023-03-12T01:34:33.971Z,74.32
2023-03-12T01:35:33.155Z,74.42
2023-03-12T01:36:33.039Z,74.42
2023-03-12T01:37:33.018Z,74.52
2023-03-12T01:38:32.969Z,74.52
2023-03-12T01:39:32.955Z,74.52
2023-03-12T01:40:33.893Z,74.73
2023-03-12T01:41:32.933Z,74.84
2023-03-12T01:42:32.928Z,74.94
2023-03-12T01:43:32.896Z,75.05
2023-03-12T01:44:32.920Z,75.05
2023-03-12T01:45:32.906Z,75.05
2023-03-12T01:46:33.796Z,75.05
2023-03-12T01:47:32.890Z,75.26
2023-03-12T01:48:32.844Z,75.36
2023-03-12T01:49:32.875Z,75.36
2023-03-12T01:50:32.824Z,75.46
2023-03-12T01:51:33.715Z,75.26
2023-03-12T01:52:32.775Z,75.46
2023-03-12T01:53:32.808Z,75.26
2023-03-12T01:54:32.776Z,75.15
2023-03-12T01:55:32.745Z,75.26
2023-03-12T01:56:32.730Z,75.15
2023-03-12T01:57:33.636Z,75.05
2023-03-12T01:58:32.733Z,74.84
2023-03-12T01:59:32.712Z,74.73
2023-03-12T02:00:32.695Z,74.94
2023-03-12T02:01:32.685Z,74.73
2023-03-12T02:02:32.736Z,74.84
2023-03-12T02:03:33.655Z,74.73
2023-03-12T02:04:32.693Z,74.73
2023-03-12T02:05:32.639Z,74.84
2023-03-12T02:06:32.596Z,74.84
2023-03-12T02:07:32.594Z,74.73
2023-03-12T02:08:33.529Z,74.73
2023-03-12T02:09:32.563Z,74.94
2023-03-12T02:10:32.552Z,74.84
2023-03-12T02:11:32.552Z,75.05
2023-03-12T02:12:32.558Z,74.84
2023-03-12T02:13:33.458Z,74.94
2023-03-12T02:14:32.503Z,74.94
2023-03-12T02:15:32.512Z,74.94
2023-03-12T02:16:32.562Z,75.15
2023-03-12T02:17:32.486Z,75.22
2023-03-12T02:18:32.479Z,75.43
2023-03-12T02:19:33.383Z,74.80
2023-03-12T02:20:32.544Z,74.70
2023-03-12T02:21:32.442Z,74.70
2023-03-12T02:22:32.396Z,74.80
2023-03-12T02:23:32.421Z,74.80
2023-03-12T02:24:33.492Z,74.70
2023-03-12T02:25:32.405Z,74.84
2023-03-12T02:26:32.380Z,75.05
2023-03-12T02:27:32.394Z,75.05
2023-03-12T02:28:32.348Z,74.94
2023-03-12T02:29:32.329Z,75.05
2023-03-12T02:30:33.271Z,75.26
2023-03-12T02:31:32.352Z,75.36
2023-03-12T02:32:32.297Z,75.36
2023-03-12T02:33:32.268Z,75.36
2023-03-12T02:34:32.282Z,75.05
2023-03-12T02:35:33.211Z,75.15
2023-03-12T02:36:32.247Z,75.26
2023-03-12T02:37:32.208Z,75.46
2023-03-12T02:38:32.188Z,75.36
2023-03-12T02:39:32.195Z,75.46
2023-03-12T02:40:32.240Z,75.36
2023-03-12T02:41:33.099Z,75.46
2023-03-12T02:42:32.238Z,75.88
2023-03-12T02:43:32.135Z,76.09
2023-03-12T02:44:32.128Z,75.88
2023-03-12T02:45:32.105Z,75.78
2023-03-12T02:46:32.106Z,75.57
2023-03-12T02:47:33.096Z,75.36
2023-03-12T02:48:32.064Z,75.57
2023-03-12T02:49:32.134Z,75.71
2023-03-12T02:50:32.045Z,75.81
2023-03-12T02:51:32.076Z,76.12
2023-03-12T02:52:32.060Z,76.33
2023-03-12T02:53:32.994Z,76.33
2023-03-12T02:54:32.028Z,76.54
2023-03-12T02:55:31.982Z,76.54
2023-03-12T02:56:31.997Z,76.65
2023-03-12T02:57:31.965Z,76.65
2023-03-12T02:58:31.954Z,76.75
2023-03-12T02:59:32.873Z,76.86
2023-03-12T03:00:31.943Z,76.75
2023-03-12T03:01:31.956Z,76.89
2023-03-12T03:02:31.899Z,77.10
2023-03-12T03:03:31.894Z,77.20
2023-03-12T03:04:31.956Z,77.31
2023-03-12T03:05:32.796Z,77.51
2023-03-12T03:06:31.853Z,77.62
2023-03-12T03:07:31.842Z,77.73
2023-03-12T03:08:31.831Z,77.83
2023-03-12T03:09:31.797Z,77.94
2023-03-12T03:10:32.760Z,78.04
2023-03-12T03:11:31.782Z,78.04
2023-03-12T03:12:31.772Z,77.94
2023-03-12T03:14:15.620Z,78.04
2023-03-12T03:15:16.475Z,78.25
2023-03-12T03:16:15.587Z,78.14
2023-03-12T03:17:15.594Z,78.14
2023-03-12T03:18:15.744Z,78.25
2023-03-12T03:19:15.450Z,78.35
2023-03-12T03:20:15.467Z,78.46
2023-03-12T03:21:16.394Z,78.35
2023-03-12T03:22:15.666Z,78.46
2023-03-12T03:23:15.424Z,78.60
2023-03-12T03:24:15.470Z,78.60
2023-03-12T03:25:15.901Z,78.49
2023-03-12T03:26:16.322Z,78.60
2023-03-12T03:27:15.367Z,78.60
2023-03-12T03:28:15.378Z,78.81
2023-03-12T03:29:15.385Z,78.91
2023-03-12T03:30:15.313Z,78.81
2023-03-12T03:31:16.316Z,78.70
2023-03-12T03:32:15.374Z,78.70
2023-03-12T03:33:15.309Z,78.70
2023-03-12T03:34:15.347Z,78.81
2023-03-12T03:35:15.270Z,78.70
2023-03-12T03:36:16.192Z,78.70
2023-03-12T03:37:15.264Z,79.02
2023-03-12T03:38:15.275Z,79.33
2023-03-12T03:39:15.223Z,79.02
2023-03-12T03:40:15.212Z,79.02
2023-03-12T03:41:16.169Z,78.81
2023-03-12T03:42:15.156Z,78.70
2023-03-12T03:43:15.160Z,78.70
2023-03-12T03:44:15.172Z,78.81
2023-03-12T03:45:15.178Z,78.91
2023-03-12T03:46:15.164Z,79.12
2023-03-12T03:47:16.996Z,78.91
2023-03-12T03:48:15.103Z,79.12
2023-03-12T03:49:15.138Z,79.02
2023-03-12T03:50:15.120Z,79.12
2023-03-12T03:51:15.071Z,79.12
2023-03-12T03:52:16.027Z,79.22
2023-03-12T03:53:15.034Z,79.26
2023-03-12T03:54:15.095Z,79.36
2023-03-12T03:55:15.004Z,79.47
2023-03-12T03:56:15.018Z,79.36
2023-03-12T03:57:15.927Z,79.47
2023-03-12T03:58:15.025Z,79.47
2023-03-12T03:59:15.019Z,79.68
2023-03-12T04:00:14.982Z,79.58
2023-03-12T04:01:14.964Z,79.68
2023-03-12T04:02:14.925Z,79.79
2023-03-12T04:03:15.883Z,79.89
2023-03-12T04:04:14.920Z,79.89
2023-03-12T04:05:14.960Z,79.89
2023-03-12T04:06:14.870Z,79.99
2023-03-12T04:07:14.872Z,79.99
2023-03-12T04:08:14.920Z,80.10
2023-03-12T04:09:15.768Z,80.31
2023-03-12T04:10:14.870Z,80.41
2023-03-12T04:11:14.902Z,80.52
2023-03-12T04:12:14.862Z,80.52
2023-03-12T04:13:15.021Z,80.62
2023-03-12T04:14:15.716Z,80.73
2023-03-12T04:15:14.876Z,80.83
2023-03-12T04:16:14.808Z,81.04
2023-03-12T04:17:14.814Z,81.04
2023-03-12T04:18:14.792Z,81.15
2023-03-12T04:19:15.672Z,81.25
2023-03-12T04:20:15.001Z,81.25
2023-03-12T04:21:14.674Z,81.46
2023-03-12T04:22:14.727Z,81.46
2023-03-12T04:23:14.681Z,81.56
2023-03-12T04:24:14.682Z,81.67
2023-03-12T04:25:15.648Z,81.67
2023-03-12T04:26:14.637Z,81.77
2023-03-12T04:27:14.674Z,81.87
2023-03-12T04:28:14.654Z,81.98
2023-03-12T04:29:14.606Z,82.09
2023-03-12T04:30:16.508Z,82.19
2023-03-12T04:31:14.600Z,82.29
2023-03-12T04:33:38.244Z,82.40
2023-03-12T04:34:40.193Z,82.40
2023-03-12T04:35:39.101Z,82.50
2023-03-12T04:36:38.179Z,82.60
2023-03-12T04:37:38.127Z,82.60
2023-03-12T04:38:38.136Z,82.71
2023-03-12T04:39:38.203Z,82.75
2023-03-12T04:40:38.134Z,82.86
2023-03-12T04:41:39.024Z,82.96
2023-03-12T04:42:38.079Z,82.86
2023-03-12T04:43:38.129Z,83.06
2023-03-12T04:44:38.108Z,83.17
2023-03-12T04:45:38.214Z,83.27
2023-03-12T04:46:38.063Z,83.38
2023-03-12T04:47:38.941Z,83.27
2023-03-12T04:48:38.090Z,83.17
2023-03-12T04:49:37.948Z,83.27
2023-03-12T04:50:38.038Z,83.27
2023-03-12T04:51:37.977Z,83.48
2023-03-12T04:52:37.938Z,83.48
2023-03-12T04:53:38.894Z,83.38
2023-03-12T04:54:38.023Z,83.27
2023-03-12T04:55:37.912Z,83.38
2023-03-12T04:56:37.896Z,83.27
2023-03-12T04:57:37.910Z,83.38
2023-03-12T04:58:38.824Z,83.38
2023-03-12T04:59:37.904Z,83.48
2023-03-12T05:00:37.952Z,83.48
2023-03-12T05:01:37.834Z,83.48
2023-03-12T05:02:37.915Z,83.48
2023-03-12T05:03:38.853Z,83.48
2023-03-12T05:04:37.830Z,83.48
2023-03-12T05:05:37.938Z,83.59
2023-03-12T05:06:37.785Z,83.59
2023-03-12T05:07:37.795Z,83.38
2023-03-12T05:08:37.741Z,83.27
2023-03-12T05:09:38.675Z,83.38
2023-03-12T05:10:37.765Z,83.38
2023-03-12T05:11:39.705Z,83.27
2023-03-12T05:12:37.676Z,83.27
2023-03-12T05:13:37.690Z,83.27
2023-03-12T05:14:38.611Z,83.17
2023-03-12T05:15:37.680Z,83.21
2023-03-12T05:16:37.649Z,83.21
2023-03-12T05:17:37.607Z,83.21
2023-03-12T05:18:37.602Z,83.31
2023-03-12T05:19:38.561Z,83.31
2023-03-12T05:20:37.595Z,83.31
2023-03-12T05:21:38.575Z,83.21
2023-03-12T05:22:37.569Z,83.10
2023-03-12T05:23:37.549Z,83.21
2023-03-12T05:24:37.581Z,83.31
2023-03-12T05:25:38.446Z,83.21
2023-03-12T05:26:37.540Z,83.10
2023-03-12T05:27:37.498Z,83.10
2023-03-12T05:28:37.544Z,83.21
2023-03-12T05:29:37.491Z,83.21
2023-03-12T05:30:37.479Z,83.31
2023-03-12T05:31:38.451Z,83.21
2023-03-12T05:32:37.478Z,83.21
2023-03-12T05:33:37.494Z,83.21
2023-03-12T05:34:37.416Z,83.42
2023-03-12T05:35:37.479Z,83.31
2023-03-12T05:36:37.447Z,83.42
2023-03-12T05:37:38.377Z,83.31
2023-03-12T05:38:37.334Z,83.21
2023-03-12T05:39:37.393Z,83.31
2023-03-12T05:40:37.357Z,83.31
2023-03-12T05:41:37.347Z,83.59
2023-03-12T05:42:38.213Z,83.17
2023-03-12T05:43:37.705Z,83.10
2023-03-12T05:46:17.792Z,83.31
2023-03-12T05:47:20.426Z,83.42
2023-03-12T05:48:18.554Z,83.52
2023-03-12T05:49:17.675Z,83.52
2023-03-12T05:50:17.614Z,83.62
2023-03-12T05:51:17.606Z,83.62
2023-03-12T05:52:17.591Z,83.62
2023-03-12T05:53:17.629Z,83.52
2023-03-12T05:54:18.488Z,83.52
2023-03-12T05:55:17.542Z,83.62
2023-03-12T05:56:17.517Z,83.38
2023-03-12T05:57:17.585Z,83.17
2023-03-12T05:58:17.504Z,83.06
2023-03-12T05:59:17.510Z,83.06
2023-03-12T06:00:18.427Z,83.06
2023-03-12T06:01:17.476Z,83.17
2023-03-12T06:02:18.553Z,83.17
2023-03-12T06:03:17.547Z,83.17
2023-03-12T06:04:17.465Z,82.96
2023-03-12T06:05:17.589Z,82.96
2023-03-12T06:06:18.310Z,82.86
2023-03-12T06:07:17.378Z,82.96
2023-03-12T06:08:17.377Z,82.96
2023-03-12T06:09:17.404Z,83.06
2023-03-12T06:10:17.361Z,82.86
2023-03-12T06:11:17.651Z,82.54
2023-03-12T06:12:18.341Z,82.54
2023-03-12T06:13:17.303Z,82.60
2023-03-12T06:14:17.320Z,82.40
2023-03-12T06:15:17.321Z,82.19
2023-03-12T06:16:17.299Z,82.09
2023-03-12T06:17:17.304Z,81.77
2023-03-12T06:18:18.218Z,81.67
2023-03-12T06:19:17.438Z,81.77
2023-03-12T06:20:17.238Z,81.77
2023-03-12T06:21:17.225Z,81.87
2023-03-12T06:22:17.210Z,81.98
2023-03-12T06:23:20.370Z,82.09
2023-03-12T06:24:17.180Z,82.09
2023-03-12T06:25:17.173Z,82.19
2023-03-12T06:26:17.208Z,82.09
2023-03-12T06:27:17.159Z,81.84
2023-03-12T06:28:17.145Z,81.52
2023-03-12T06:29:18.075Z,81.52
2023-03-12T06:30:17.089Z,81.21
2023-03-12T06:31:17.135Z,80.90
2023-03-12T06:32:17.312Z,81.00
2023-03-12T06:33:17.081Z,81.11
2023-03-12T06:34:17.081Z,80.90
2023-03-12T06:35:17.975Z,81.11
2023-03-12T06:36:17.060Z,81.11
2023-03-12T06:37:17.049Z,81.00
2023-03-12T06:38:17.000Z,80.90
2023-03-12T06:39:17.059Z,80.90
2023-03-12T06:40:17.957Z,80.69
2023-03-12T06:41:16.996Z,80.69
2023-03-12T06:42:16.983Z,80.69
2023-03-12T06:43:16.929Z,80.55
2023-03-12T06:44:16.974Z,80.44
2023-03-12T06:45:18.099Z,80.34
2023-03-12T06:46:17.894Z,80.13
2023-03-12T06:47:17.802Z,80.13
2023-03-12T06:49:39.665Z,79.99
2023-03-12T06:50:39.692Z,79.71
2023-03-12T06:51:45.984Z,79.92
2023-03-12T06:52:39.607Z,80.09
2023-03-12T06:53:42.195Z,80.20
2023-03-12T06:54:39.717Z,79.78
2023-03-12T06:55:39.593Z,79.15
2023-03-12T06:56:39.656Z,79.05
2023-03-12T06:57:40.484Z,79.15
2023-03-12T06:58:39.641Z,79.05
2023-03-12T06:59:39.578Z,79.26
2023-03-12T07:00:39.553Z,79.15
2023-03-12T07:01:43.743Z,79.05
2023-03-12T07:02:39.500Z,79.01
2023-03-12T07:03:40.429Z,78.70
2023-03-12T07:04:39.616Z,78.49
2023-03-12T07:05:39.506Z,78.39
2023-03-12T07:06:39.488Z,78.18
2023-03-12T07:07:39.492Z,77.97
2023-03-12T07:08:40.392Z,77.86
2023-03-12T07:09:39.530Z,77.97
2023-03-12T07:10:39.395Z,77.72
2023-03-12T07:11:39.426Z,77.62
2023-03-12T07:12:39.429Z,77.62
2023-03-12T07:13:39.450Z,77.41
2023-03-12T07:14:40.413Z,77.83
2023-03-12T07:15:39.392Z,77.51
2023-03-12T07:16:39.431Z,77.41
2023-03-12T07:17:39.424Z,77.20
2023-03-12T07:18:39.317Z,77.20
2023-03-12T07:19:40.269Z,77.00
2023-03-12T07:20:39.307Z,76.79
2023-03-12T07:21:39.312Z,77.20
2023-03-12T07:22:39.337Z,77.31
2023-03-12T07:23:39.275Z,77.31
2023-03-12T07:24:40.212Z,77.20
2023-03-12T07:25:39.252Z,77.00
2023-03-12T07:26:39.198Z,77.06
2023-03-12T07:27:39.284Z,77.06
2023-03-12T07:28:39.170Z,76.86
2023-03-12T07:29:40.112Z,76.54
2023-03-12T07:30:39.182Z,76.43
2023-03-12T07:31:39.234Z,76.23
2023-03-12T07:32:39.192Z,76.43
2023-03-12T07:33:39.330Z,76.86
2023-03-12T07:34:39.167Z,77.06
2023-03-12T07:35:40.148Z,77.17
2023-03-12T07:36:39.186Z,76.75
2023-03-12T07:37:39.122Z,76.54
2023-03-12T07:38:39.117Z,76.02
2023-03-12T07:39:39.135Z,75.98
2023-03-12T07:40:39.189Z,76.20
2023-03-12T07:41:39.964Z,76.09
2023-03-12T07:42:39.044Z,75.67
2023-03-12T07:43:39.093Z,75.88
2023-03-12T07:44:39.041Z,75.32
2023-03-12T07:45:39.109Z,75.32
2023-03-12T07:46:38.986Z,75.12
2023-03-12T07:47:40.155Z,74.98
2023-03-12T07:48:38.991Z,74.25
2023-03-12T07:49:38.990Z,74.04
2023-03-12T07:50:38.913Z,73.42
2023-03-12T07:51:38.909Z,73.38
2023-03-12T07:52:39.811Z,73.59
2023-03-12T07:53:38.972Z,73.80
2023-03-12T07:54:39.082Z,73.35
2023-03-12T07:57:17.924Z,72.31
2023-03-12T07:58:18.937Z,72.83
2023-03-12T07:59:17.866Z,72.28
2023-03-12T08:00:17.800Z,71.55
2023-03-12T08:01:18.719Z,71.27
2023-03-12T08:02:18.838Z,71.44
2023-03-12T08:03:18.872Z,71.17
2023-03-12T08:04:18.782Z,71.69
2023-03-12T08:05:17.782Z,71.23
2023-03-12T08:06:17.761Z,71.23
2023-03-12T08:07:17.741Z,71.13
2023-03-12T08:08:17.718Z,70.82
2023-03-12T08:09:17.672Z,71.03
2023-03-12T08:10:18.614Z,71.23
2023-03-12T08:11:17.699Z,71.44
2023-03-12T08:12:17.665Z,71.75
2023-03-12T08:13:17.715Z,71.65
2023-03-12T08:14:17.634Z,71.13
2023-03-12T08:15:18.582Z,70.89
2023-03-12T08:16:17.604Z,70.79
2023-03-12T08:17:17.567Z,70.17
2023-03-12T08:18:17.601Z,70.27
2023-03-12T08:19:17.543Z,70.37
2023-03-12T08:20:19.359Z,70.44
2023-03-12T08:21:17.588Z,70.03
2023-03-12T08:22:17.492Z,69.71
2023-03-12T08:23:17.562Z,69.40
2023-03-12T08:24:17.566Z,69.61
2023-03-12T08:25:17.438Z,69.30
2023-03-12T08:26:18.368Z,69.48
2023-03-12T08:27:17.407Z,69.27
2023-03-12T08:28:17.432Z,69.27
2023-03-12T08:29:17.506Z,69.06
2023-03-12T08:30:17.385Z,69.96
2023-03-12T08:31:18.391Z,68.62
2023-03-12T08:32:17.504Z,67.99
2023-03-12T08:33:17.795Z,68.27
2023-03-12T08:34:17.899Z,67.55
2023-03-12T08:35:17.757Z,68.17
2023-03-12T08:36:20.097Z,67.51
2023-03-12T08:37:17.285Z,67.30
2023-03-12T08:38:17.472Z,66.68
2023-03-12T08:39:17.337Z,66.27
2023-03-12T08:40:17.335Z,65.86
2023-03-12T08:41:17.266Z,66.03
2023-03-12T08:42:18.155Z,66.35
2023-03-12T08:43:17.293Z,65.83
2023-03-12T08:44:17.246Z,65.83
2023-03-12T08:45:17.242Z,65.72
2023-03-12T08:46:17.230Z,65.44
2023-03-12T08:47:18.081Z,65.55
2023-03-12T08:48:17.297Z,65.65
2023-03-12T08:49:17.138Z,65.65
2023-03-12T08:50:17.171Z,65.86
2023-03-12T08:51:17.144Z,65.65
2023-03-12T08:52:18.027Z,65.34
2023-03-12T08:53:17.196Z,65.75
2023-03-12T08:54:17.089Z,66.20
2023-03-12T08:55:17.085Z,66.47
2023-03-12T08:56:17.134Z,66.61
2023-03-12T08:57:18.004Z,66.47
2023-03-12T08:58:17.104Z,66.27
2023-03-12T08:59:17.027Z,66.38
2023-03-12T09:00:16.980Z,65.75
2023-03-12T09:01:17.087Z,65.96
2023-03-12T09:02:16.994Z,66.27
2023-03-12T09:03:17.996Z,66.27
2023-03-12T09:04:16.971Z,66.55
2023-03-12T09:05:16.950Z,65.93
2023-03-12T09:06:17.039Z,65.72
2023-03-12T09:08:56.141Z,64.83
2023-03-12T09:09:56.156Z,64.62
2023-03-12T09:10:56.148Z,63.66
2023-03-12T09:11:57.040Z,63.46
2023-03-12T09:12:56.071Z,63.25
2023-03-12T09:15:02.389Z,63.46
2023-03-12T09:15:41.256Z,63.04
2023-03-12T09:16:40.279Z,63.25
2023-03-12T09:17:40.209Z,63.04
2023-03-12T09:18:40.225Z,62.91
2023-03-12T09:19:41.140Z,62.81
2023-03-12T09:20:40.171Z,62.29
2023-03-12T09:21:40.284Z,61.64
2023-03-12T09:22:40.265Z,60.71
2023-03-12T09:23:40.132Z,60.78
2023-03-12T09:24:40.136Z,60.78
2023-03-12T09:25:41.060Z,59.93
2023-03-12T09:26:40.077Z,59.62
2023-03-12T09:27:40.080Z,59.83
2023-03-12T09:28:40.086Z,59.80
2023-03-12T09:29:53.464Z,59.59
2023-03-12T09:30:41.584Z,59.77
2023-03-12T09:31:40.989Z,58.64
2023-03-12T09:32:40.084Z,58.12
2023-03-12T09:33:40.026Z,57.81
2023-03-12T09:34:39.984Z,57.29
2023-03-12T09:35:39.988Z,57.73
2023-03-12T09:36:39.971Z,58.56
2023-03-12T09:37:40.918Z,58.66
2023-03-12T09:38:39.958Z,58.56
2023-03-12T09:39:39.903Z,58.74
2023-03-12T09:40:39.951Z,58.22
2023-03-12T09:41:39.944Z,59.12
2023-03-12T09:42:39.885Z,57.26
2023-03-12T09:43:40.827Z,56.83
2023-03-12T09:44:39.877Z,56.44
2023-03-12T09:45:39.863Z,56.34
2023-03-12T09:46:39.850Z,55.51
2023-03-12T09:47:39.806Z,56.54
2023-03-12T09:48:40.776Z,56.13
2023-03-12T09:49:39.793Z,56.34
2023-03-12T09:50:39.794Z,55.72
2023-03-12T09:51:39.786Z,55.82
2023-03-12T09:52:39.784Z,56.31
2023-03-12T09:53:40.686Z,56.41
2023-03-12T09:54:39.712Z,56.00
2023-03-12T09:55:39.728Z,56.08
2023-03-12T09:56:39.713Z,56.77
2023-03-12T09:57:39.749Z,55.30
2023-03-12T09:58:39.676Z,54.10
2023-03-12T09:59:40.713Z,54.69
2023-03-12T10:00:39.663Z,53.97
2023-03-12T10:01:39.650Z,53.89
2023-03-12T10:02:39.634Z,54.07
2023-03-12T10:03:39.678Z,53.76
2023-03-12T10:04:58.185Z,52.96
2023-03-12T10:05:41.094Z,53.68
2023-03-12T10:06:39.579Z,54.10
2023-03-12T10:07:39.543Z,54.51
2023-03-12T10:08:39.575Z,53.66
2023-03-12T10:09:39.539Z,54.20
2023-03-12T10:10:40.444Z,54.20
2023-03-12T10:11:39.533Z,54.28
2023-03-12T10:12:39.496Z,54.20
2023-03-12T10:13:39.509Z,54.17
2023-03-12T10:14:39.520Z,54.90
2023-03-12T10:15:39.490Z,53.76
2023-03-12T10:16:40.359Z,54.07
2023-03-12T10:17:39.437Z,53.74
2023-03-12T10:18:39.556Z,53.22
2023-03-12T10:19:39.417Z,53.84
2023-03-12T10:20:39.399Z,53.12
2023-03-12T10:21:40.335Z,53.02
2023-03-12T10:22:39.362Z,53.43
2023-03-12T10:23:39.378Z,54.22
2023-03-12T10:24:39.332Z,53.81
2023-03-12T10:25:39.323Z,54.64
2023-03-12T10:26:39.327Z,52.37
2023-03-12T10:27:40.243Z,52.99
2023-03-12T10:28:39.289Z,52.40
2023-03-12T10:29:39.313Z,52.71
2023-03-12T10:30:39.299Z,53.53
2023-03-12T10:31:39.293Z,53.74
2023-03-12T10:32:39.258Z,53.94
2023-03-12T10:33:40.156Z,53.09
2023-03-12T10:34:39.241Z,50.70
2023-03-12T10:35:39.220Z,48.75
2023-03-12T10:36:39.195Z,48.85
2023-03-12T10:37:39.185Z,49.06
2023-03-12T10:38:39.151Z,49.16
2023-03-12T10:39:40.162Z,49.39
2023-03-12T10:40:39.160Z,49.72
2023-03-12T10:41:39.129Z,50.26
2023-03-12T10:42:39.101Z,51.10
2023-03-12T10:43:39.096Z,51.52
2023-03-12T10:44:39.103Z,51.83
2023-03-12T10:45:39.998Z,52.34
2023-03-12T10:46:39.146Z,52.96
2023-03-12T10:47:39.076Z,52.53
2023-03-12T10:48:39.091Z,52.09
2023-03-12T10:49:39.010Z,50.93
2023-03-12T10:50:39.985Z,50.29
2023-03-12T10:51:39.003Z,49.98
2023-03-12T10:52:38.983Z,49.90
2023-03-12T10:53:38.978Z,50.42
2023-03-12T10:54:38.952Z,50.11
2023-03-12T10:55:38.949Z,50.21
2023-03-12T10:56:39.871Z,50.32
2023-03-12T10:57:38.913Z,50.24
2023-03-12T10:58:38.921Z,50.54
2023-03-12T10:59:38.967Z,50.21
2023-03-12T11:00:38.868Z,49.88
2023-03-12T11:01:39.819Z,49.39
2023-03-12T11:02:38.840Z,49.80
2023-03-12T11:03:38.871Z,49.80
2023-03-12T11:04:38.842Z,50.01
2023-03-12T11:05:38.866Z,51.14
2023-03-12T11:06:38.823Z,50.81
2023-03-12T11:07:39.774Z,50.68
2023-03-12T11:08:38.818Z,50.45
2023-03-12T11:09:38.856Z,49.43
2023-03-12T11:10:38.772Z,49.51
2023-03-12T11:11:38.744Z,49.91
2023-03-12T11:12:39.742Z,49.30
2023-03-12T11:13:38.758Z,49.32
2023-03-12T11:14:38.743Z,49.63
2023-03-12T11:15:38.772Z,50.04
2023-03-12T11:16:38.673Z,49.43
2023-03-12T11:17:38.675Z,50.24
2023-03-12T11:18:39.653Z,50.63
2023-03-12T11:19:38.645Z,48.07
2023-03-12T11:20:38.644Z,47.37
2023-03-12T11:21:38.600Z,47.47
2023-03-12T11:22:38.601Z,47.47
2023-03-12T11:23:38.607Z,47.91
2023-03-12T11:24:39.504Z,47.70
2023-03-12T11:25:38.597Z,48.11
2023-03-12T11:26:38.581Z,47.27
2023-03-12T11:27:38.544Z,46.62
2023-03-12T11:28:38.512Z,46.09
2023-03-12T11:29:39.460Z,45.81
2023-03-12T11:30:38.536Z,46.34
2023-03-12T11:31:38.551Z,46.44
2023-03-12T11:32:38.498Z,46.67
2023-03-12T11:33:38.460Z,46.88
2023-03-12T11:34:38.479Z,47.11
2023-03-12T11:35:39.404Z,47.62
2023-03-12T11:36:38.454Z,47.74
2023-03-12T11:37:40.385Z,47.44
2023-03-12T11:38:38.399Z,48.36
2023-03-12T11:39:38.372Z,48.18
2023-03-12T11:40:39.302Z,47.74
2023-03-12T11:41:38.369Z,47.44
2023-03-12T11:42:38.328Z,47.33
2023-03-12T11:43:43.543Z,47.74
2023-03-12T11:44:39.840Z,46.20
2023-03-12T11:45:38.300Z,45.76
2023-03-12T11:46:39.297Z,45.48
2023-03-12T11:47:38.345Z,44.86
2023-03-12T11:48:38.347Z,45.29
2023-03-12T11:49:38.239Z,45.44
2023-03-12T11:50:38.247Z,47.60
2023-03-12T11:51:39.174Z,48.33
2023-03-12T11:52:38.253Z,48.94
2023-03-12T11:53:38.224Z,49.46
2023-03-12T11:54:38.192Z,49.77
2023-03-12T11:55:38.197Z,49.56
2023-03-12T11:56:38.174Z,49.13
2023-03-12T11:57:39.072Z,48.69
2023-03-12T11:58:38.152Z,48.46
2023-03-12T11:59:38.113Z,47.85
2023-03-12T12:00:38.125Z,47.11
2023-03-12T12:01:38.127Z,46.67
2023-03-12T12:02:39.009Z,46.15
2023-03-12T12:03:38.121Z,45.83
2023-03-12T12:04:38.082Z,45.09
2023-03-12T12:05:38.053Z,44.76
2023-03-12T12:06:38.044Z,44.12
2023-03-12T12:07:38.974Z,43.73
2023-03-12T12:08:37.991Z,43.73
2023-03-12T12:09:37.993Z,43.96
2023-03-12T12:10:37.998Z,45.03
2023-03-12T12:11:37.995Z,45.13
2023-03-12T12:12:37.951Z,45.15
2023-03-12T12:13:38.885Z,45.87
2023-03-12T12:14:37.941Z,45.46
2023-03-12T12:15:37.931Z,45.03
2023-03-12T12:16:37.944Z,44.41
2023-03-12T12:17:37.927Z,44.51
2023-03-12T12:18:37.894Z,44.29
2023-03-12T12:19:38.797Z,43.75
2023-03-12T12:20:37.840Z,43.73
2023-03-12T12:21:37.850Z,41.06
2023-03-12T12:22:37.812Z,40.65
2023-03-12T12:23:37.826Z,40.77
2023-03-12T12:24:37.827Z,41.28
2023-03-12T12:25:38.723Z,41.19
2023-03-12T12:26:37.777Z,41.39
2023-03-12T12:27:37.781Z,41.70
2023-03-12T12:28:37.776Z,42.21
2023-03-12T12:29:37.760Z,41.60
2023-03-12T12:30:37.731Z,41.28
2023-03-12T12:31:38.703Z,41.27
2023-03-12T12:32:37.726Z,40.03
2023-03-12T12:33:37.721Z,40.75
2023-03-12T12:34:37.691Z,40.43
2023-03-12T12:35:37.740Z,38.79
2023-03-12T12:36:37.640Z,38.79
2023-03-12T12:37:38.585Z,38.28
2023-03-12T12:38:37.648Z,37.86
2023-03-12T12:39:37.629Z,38.37
2023-03-12T12:40:37.600Z,38.26
2023-03-12T12:41:37.622Z,37.23
2023-03-12T12:42:37.636Z,37.23
2023-03-12T12:43:38.529Z,36.30
2023-03-12T12:44:37.569Z,36.30
2023-03-12T12:45:37.623Z,35.30
2023-03-12T12:46:37.537Z,34.99
2023-03-12T12:47:37.541Z,34.70
2023-03-12T12:48:38.462Z,33.77
2023-03-12T12:49:37.492Z,34.61
2023-03-12T12:50:37.468Z,35.52
2023-03-12T12:51:37.494Z,32.87
2023-03-12T12:52:37.454Z,33.17
2023-03-12T12:53:38.404Z,33.81
2023-03-12T12:54:37.424Z,34.44
2023-03-12T12:55:37.434Z,35.07
2023-03-12T12:56:37.414Z,35.60
2023-03-12T12:57:37.401Z,36.11
2023-03-12T12:58:37.354Z,35.91
2023-03-12T12:59:38.334Z,36.30
2023-03-12T13:00:37.401Z,35.81
2023-03-12T13:01:37.357Z,36.43